createdAt,value
2023-04-28T00:01:24.173Z,76.28
2023-04-28T00:03:58.690Z,76.52
2023-04-28T00:06:32.140Z,76.52
2023-04-28T00:09:05.185Z,76.80
2023-04-28T00:11:39.642Z,76.77
2023-04-28T00:14:12.296Z,76.59
2023-04-28T00:16:45.143Z,76.73
2023-04-28T00:19:17.899Z,77.02
2023-04-28T00:21:50.952Z,76.60
2023-04-28T00:24:23.951Z,76.85
2023-04-28T00:26:58.516Z,76.99
2023-04-28T00:29:31.202Z,76.92
2023-04-28T00:32:04.039Z,76.86
2023-04-28T00:34:37.585Z,76.67
2023-04-28T00:37:10.351Z,76.85
2023-04-28T00:39:47.066Z,76.42
2023-04-28T00:42:21.562Z,76.41
2023-04-28T00:44:54.260Z,76.32
2023-04-28T00:47:27.250Z,76.54
2023-04-28T00:50:00.166Z,76.47
2023-04-28T00:52:32.905Z,76.71
2023-04-28T00:55:06.328Z,76.63
2023-04-28T00:57:40.612Z,76.57
2023-04-28T01:00:14.196Z,76.54
2023-04-28T01:02:47.064Z,76.72
2023-04-28T01:05:20.446Z,76.54
2023-04-28T01:07:53.187Z,76.81
2023-04-28T01:10:25.894Z,76.54
2023-04-28T01:12:59.914Z,76.58
2023-04-28T01:15:32.629Z,76.51
2023-04-28T01:18:05.636Z,76.38
2023-04-28T01:20:38.752Z,76.64
2023-04-28T01:23:12.954Z,76.54
2023-04-28T01:25:47.346Z,76.86
2023-04-28T01:28:20.150Z,76.61
2023-04-28T01:30:52.984Z,76.56
2023-04-28T01:33:25.663Z,76.82
2023-04-28T01:35:58.725Z,76.65
2023-04-28T01:38:31.340Z,76.82
2023-04-28T01:41:05.707Z,76.72
2023-04-28T01:43:38.401Z,76.70
2023-04-28T01:46:11.270Z,76.34
2023-04-28T01:48:43.957Z,76.50
2023-04-28T01:51:16.661Z,76.74
2023-04-28T01:53:49.696Z,76.66
2023-04-28T01:56:23.998Z,76.64
2023-04-28T01:58:56.799Z,76.88
2023-04-28T02:01:29.745Z,77.18
2023-04-28T02:04:02.626Z,76.64
2023-04-28T02:06:35.829Z,76.55
2023-04-28T02:09:08.474Z,76.49
2023-04-28T02:11:42.670Z,76.30
2023-04-28T02:14:15.788Z,76.61
2023-04-28T02:16:48.670Z,76.49
2023-04-28T02:19:21.537Z,76.57
2023-04-28T02:21:54.306Z,76.93
2023-04-28T02:24:27.069Z,76.99
2023-04-28T02:27:01.173Z,77.11
2023-04-28T02:29:34.196Z,77.25
2023-04-28T02:32:07.367Z,77.27
2023-04-28T02:34:40.064Z,77.27
2023-04-28T02:37:13.200Z,77.16
2023-04-28T02:39:46.476Z,77.61
2023-04-28T02:42:21.429Z,77.58
2023-04-28T02:44:54.525Z,77.47
2023-04-28T02:47:27.232Z,77.77
2023-04-28T02:50:00.048Z,77.60
2023-04-28T02:52:32.823Z,77.71
2023-04-28T02:55:05.924Z,77.88
2023-04-28T02:57:40.345Z,78.10
2023-04-28T03:00:13.864Z,78.01
2023-04-28T03:02:46.860Z,78.10
2023-04-28T03:05:20.042Z,77.92
2023-04-28T03:07:53.289Z,78.11
2023-04-28T03:10:26.638Z,77.70
2023-04-28T03:13:01.096Z,77.82
2023-04-28T03:15:34.053Z,77.98
2023-04-28T03:18:07.224Z,78.01
2023-04-28T03:20:40.335Z,78.19
2023-04-28T03:23:13.143Z,78.09
2023-04-28T03:25:46.032Z,78.28
2023-04-28T03:28:21.055Z,78.21
2023-04-28T03:30:54.341Z,78.43
2023-04-28T03:33:30.180Z,78.48
2023-04-28T03:36:02.957Z,78.25
2023-04-28T03:38:35.989Z,78.33
2023-04-28T03:41:08.729Z,78.53
2023-04-28T03:43:42.782Z,78.44
2023-04-28T03:46:15.965Z,78.69
2023-04-28T03:48:49.058Z,78.38
2023-04-28T03:51:22.701Z,78.71
2023-04-28T03:53:55.758Z,78.61
2023-04-28T03:56:28.481Z,78.66
2023-04-28T03:59:02.835Z,78.91
2023-04-28T04:01:36.100Z,78.47
2023-04-28T04:04:09.087Z,78.79
2023-04-28T04:06:42.640Z,78.95
2023-04-28T04:09:16.150Z,78.89
2023-04-28T04:11:49.288Z,78.90
2023-04-28T04:14:23.381Z,79.25
2023-04-28T04:16:56.822Z,79.11
2023-04-28T04:19:29.935Z,79.14
2023-04-28T04:22:02.714Z,79.40
2023-04-28T04:24:36.255Z,79.38
2023-04-28T04:27:09.420Z,79.59
2023-04-28T04:29:43.609Z,79.63
2023-04-28T04:32:16.839Z,79.30
2023-04-28T04:34:49.684Z,79.52
2023-04-28T04:37:22.482Z,79.57
2023-04-28T04:39:55.198Z,79.76
2023-04-28T04:42:28.382Z,79.88
2023-04-28T04:45:03.144Z,79.65
2023-04-28T04:47:36.063Z,79.99
2023-04-28T04:50:09.409Z,79.79
2023-04-28T04:52:42.189Z,80.06
2023-04-28T04:55:14.948Z,79.79
2023-04-28T04:57:48.362Z,79.83
2023-04-28T05:00:23.418Z,79.95
2023-04-28T05:02:56.352Z,80.02
2023-04-28T05:05:29.326Z,79.92
2023-04-28T05:08:02.565Z,80.10
2023-04-28T05:10:35.426Z,80.04
2023-04-28T05:13:08.271Z,79.81
2023-04-28T05:15:42.652Z,79.92
2023-04-28T05:18:15.442Z,80.04
2023-04-28T05:20:48.594Z,79.90
2023-04-28T05:23:21.445Z,80.36
2023-04-28T05:25:54.108Z,80.30
2023-04-28T05:28:27.645Z,79.99
2023-04-28T05:31:01.751Z,80.33
2023-04-28T05:33:34.561Z,80.06
2023-04-28T05:36:08.440Z,80.05
2023-04-28T05:38:41.541Z,80.10
2023-04-28T05:41:14.396Z,80.02
2023-04-28T05:43:48.166Z,79.87
2023-04-28T05:49:01.750Z,80.19
2023-04-28T05:51:35.290Z,79.96
2023-04-28T05:54:08.150Z,79.87
2023-04-28T05:56:41.380Z,80.09
2023-04-28T05:59:15.057Z,79.96
2023-04-28T06:01:50.874Z,79.78
2023-04-28T06:04:24.165Z,80.07
2023-04-28T06:06:57.827Z,79.89
2023-04-28T06:09:30.956Z,80.11
2023-04-28T06:12:05.031Z,79.93
2023-04-28T06:14:38.572Z,80.08
2023-04-28T06:17:13.072Z,79.89
2023-04-28T06:19:45.955Z,80.22
2023-04-28T06:22:18.727Z,80.04
2023-04-28T06:24:51.862Z,80.02
2023-04-28T06:27:24.766Z,79.97
2023-04-28T06:29:59.649Z,80.03
2023-04-28T06:32:34.364Z,79.94
2023-04-28T06:35:07.691Z,80.25
2023-04-28T06:37:40.513Z,80.40
2023-04-28T06:40:13.451Z,80.26
2023-04-28T06:42:46.337Z,80.34
2023-04-28T06:45:19.239Z,80.16
2023-04-28T06:47:56.272Z,80.38
2023-04-28T06:50:29.100Z,80.33
2023-04-28T06:53:01.888Z,80.62
2023-04-28T06:55:35.376Z,80.51
2023-04-28T06:58:08.183Z,80.35
2023-04-28T07:00:40.972Z,80.72
2023-04-28T07:03:15.451Z,80.59
2023-04-28T07:05:48.984Z,80.69
2023-04-28T07:08:22.528Z,81.01
2023-04-28T07:10:55.517Z,80.82
2023-04-28T07:13:28.191Z,81.08
2023-04-28T07:16:01.675Z,80.86
2023-04-28T07:18:36.013Z,81.21
2023-04-28T07:21:08.972Z,81.44
2023-04-28T07:23:41.992Z,81.51
2023-04-28T07:26:16.802Z,81.81
2023-04-28T07:28:49.585Z,82.12
2023-04-28T07:31:22.749Z,82.27
2023-04-28T07:33:57.157Z,82.41
2023-04-28T07:36:30.016Z,82.42
2023-04-28T07:39:03.291Z,82.39
2023-04-28T07:41:37.584Z,82.01
2023-04-28T07:44:10.666Z,82.20
2023-04-28T07:46:43.414Z,81.63
2023-04-28T07:49:17.989Z,81.57
2023-04-28T07:51:54.059Z,81.51
2023-04-28T07:54:26.955Z,81.24
2023-04-28T07:56:59.992Z,81.20
2023-04-28T07:59:32.803Z,80.97
2023-04-28T08:02:06.286Z,80.79
2023-04-28T08:04:41.067Z,80.89
2023-04-28T08:07:14.448Z,81.03
2023-04-28T08:09:48.659Z,81.04
2023-04-28T08:12:22.106Z,80.90
2023-04-28T08:14:55.311Z,81.18
2023-04-28T08:17:28.365Z,80.69
2023-04-28T08:20:02.581Z,80.85
2023-04-28T08:22:35.507Z,81.04
2023-04-28T08:25:08.866Z,80.65
2023-04-28T08:27:41.793Z,80.69
2023-04-28T08:30:15.357Z,80.75
2023-04-28T08:32:48.520Z,80.77
2023-04-28T08:35:22.787Z,81.02
2023-04-28T08:37:56.148Z,81.22
2023-04-28T08:40:31.380Z,81.09
2023-04-28T08:43:04.240Z,81.26
2023-04-28T08:45:42.235Z,81.47
2023-04-28T08:48:19.268Z,81.78
2023-04-28T08:50:54.972Z,81.79
2023-04-28T08:53:28.111Z,81.73
2023-04-28T08:56:03.767Z,82.00
2023-04-28T08:58:38.588Z,81.95
2023-04-28T09:01:11.599Z,81.74
2023-04-28T09:03:45.093Z,81.84
2023-04-28T09:06:19.510Z,81.87
2023-04-28T09:08:52.656Z,81.73
2023-04-28T09:11:26.064Z,81.72
2023-04-28T09:14:13.350Z,81.94
2023-04-28T09:16:46.329Z,81.79
2023-04-28T09:19:19.339Z,81.21
2023-04-28T09:21:55.134Z,81.33
2023-04-28T09:24:29.023Z,81.03
2023-04-28T09:27:02.407Z,80.84
2023-04-28T09:29:35.274Z,80.97
2023-04-28T09:32:15.074Z,80.71
2023-04-28T09:34:49.676Z,80.71
2023-04-28T09:37:25.097Z,80.36
2023-04-28T09:39:58.364Z,80.14
2023-04-28T09:42:35.500Z,80.55
2023-04-28T09:45:09.110Z,81.00
2023-04-28T09:47:42.781Z,80.71
2023-04-28T09:50:17.659Z,80.89
2023-04-28T09:52:57.998Z,80.72
2023-04-28T09:55:31.836Z,80.49
2023-04-28T09:58:05.649Z,80.41
2023-04-28T10:00:40.584Z,80.77
2023-04-28T10:03:15.984Z,80.73
2023-04-28T10:05:49.651Z,81.29
2023-04-28T10:08:24.920Z,81.39
2023-04-28T10:10:58.007Z,81.39
2023-04-28T10:13:31.332Z,82.11
2023-04-28T10:16:05.235Z,82.31
2023-04-28T10:18:39.205Z,82.29
2023-04-28T10:21:13.770Z,81.58
2023-04-28T10:24:00.653Z,81.17
2023-04-28T10:26:59.466Z,80.95
2023-04-28T10:29:33.117Z,81.88
2023-04-28T10:32:26.353Z,82.41
2023-04-28T10:35:14.182Z,82.93
2023-04-28T10:38:05.752Z,83.16
2023-04-28T10:40:40.828Z,82.62
2023-04-28T10:43:13.839Z,82.21
2023-04-28T10:46:08.466Z,81.82
2023-04-28T10:48:54.298Z,81.88
2023-04-28T10:51:30.654Z,82.58
2023-04-28T10:54:16.677Z,83.05
2023-04-28T10:57:04.556Z,83.29
2023-04-28T10:59:38.956Z,83.54
2023-04-28T11:02:30.478Z,83.67
2023-04-28T11:05:16.417Z,83.33
2023-04-28T11:08:08.417Z,83.24
2023-04-28T11:10:59.868Z,83.28
2023-04-28T11:13:34.425Z,83.54
2023-04-28T11:16:09.359Z,83.60
2023-04-28T11:18:50.584Z,83.79
2023-04-28T11:21:25.264Z,83.59
2023-04-28T11:23:58.678Z,82.80
2023-04-28T11:26:32.621Z,82.83
2023-04-28T11:29:05.963Z,82.65
2023-04-28T11:31:40.150Z,83.55
2023-04-28T11:34:14.531Z,84.38
2023-04-28T11:36:47.395Z,84.75
2023-04-28T11:39:28.508Z,85.05
2023-04-28T11:42:02.600Z,84.77
2023-04-28T11:44:35.401Z,84.06
2023-04-28T11:47:09.474Z,83.40
2023-04-28T11:49:46.093Z,82.58
2023-04-28T11:52:21.594Z,82.74
2023-04-28T11:54:55.215Z,81.80
2023-04-28T11:57:28.286Z,81.18
2023-04-28T12:00:14.375Z,80.29
2023-04-28T12:02:48.872Z,79.48
2023-04-28T12:05:22.560Z,79.04
2023-04-28T12:07:55.384Z,80.17
2023-04-28T12:10:28.106Z,79.81
2023-04-28T12:13:16.033Z,79.63
2023-04-28T12:15:48.830Z,78.88
2023-04-28T12:18:22.898Z,79.07
2023-04-28T12:20:55.625Z,80.12
2023-04-28T12:23:32.313Z,80.49
2023-04-28T12:26:05.448Z,81.34
2023-04-28T12:28:39.709Z,81.35
2023-04-28T12:31:12.431Z,80.64
2023-04-28T12:33:46.543Z,80.28
2023-04-28T12:36:19.465Z,80.93
2023-04-28T12:38:52.389Z,80.52
2023-04-28T12:41:26.984Z,80.39
2023-04-28T12:43:59.792Z,79.93
2023-04-28T12:46:33.503Z,80.04
2023-04-28T12:49:07.729Z,80.42
2023-04-28T12:51:40.797Z,80.35
2023-04-28T12:54:14.528Z,80.80
2023-04-28T12:56:47.279Z,81.30
2023-04-28T12:59:19.975Z,80.64
2023-04-28T13:01:52.836Z,80.07
2023-04-28T13:04:27.512Z,79.13
2023-04-28T13:07:00.673Z,78.79
2023-04-28T13:09:33.677Z,78.71
2023-04-28T13:12:07.521Z,78.74
2023-04-28T13:14:40.302Z,78.75
2023-04-28T13:17:13.574Z,78.52
2023-04-28T13:19:48.107Z,79.32
2023-04-28T13:22:21.826Z,79.38
2023-04-28T13:24:54.779Z,79.38
2023-04-28T13:27:30.356Z,80.65
2023-04-28T13:30:04.193Z,80.46
2023-04-28T13:32:36.933Z,80.27
2023-04-28T13:35:11.520Z,80.39
2023-04-28T13:37:46.143Z,79.93
2023-04-28T13:40:19.231Z,80.37
2023-04-28T13:42:51.909Z,79.94
2023-04-28T13:45:26.717Z,79.47
2023-04-28T13:47:59.835Z,78.43
2023-04-28T13:50:34.061Z,78.29
2023-04-28T13:53:06.805Z,77.83
2023-04-28T13:55:39.540Z,78.28
2023-04-28T13:58:12.407Z,79.22
2023-04-28T14:00:45.562Z,79.55
2023-04-28T14:03:19.511Z,78.97
2023-04-28T14:05:54.438Z,78.97
2023-04-28T14:08:28.041Z,77.47
2023-04-28T14:11:01.165Z,78.43
2023-04-28T14:13:34.301Z,78.56
2023-04-28T14:16:08.892Z,77.09
2023-04-28T14:18:41.746Z,77.71
2023-04-28T14:21:15.960Z,76.30
2023-04-28T14:23:49.036Z,75.97
2023-04-28T14:26:23.859Z,74.64
2023-04-28T14:28:56.810Z,74.91
2023-04-28T14:31:29.594Z,74.34
2023-04-28T14:34:03.939Z,74.18
2023-04-28T14:36:38.414Z,73.80
2023-04-28T14:39:11.295Z,74.81
2023-04-28T14:41:44.091Z,74.71
2023-04-28T14:44:16.848Z,74.70
2023-04-28T14:46:50.014Z,74.86
2023-04-28T14:49:22.794Z,74.91
2023-04-28T14:51:56.981Z,75.22
2023-04-28T14:54:29.660Z,74.81
2023-04-28T14:57:03.097Z,75.21
2023-04-28T14:59:35.989Z,75.68
2023-04-28T15:02:09.191Z,76.83
2023-04-28T15:04:42.692Z,77.20
2023-04-28T15:07:18.150Z,77.12
2023-04-28T15:09:51.088Z,77.63
2023-04-28T15:12:24.126Z,77.55
2023-04-28T15:14:57.360Z,77.22
2023-04-28T15:17:30.106Z,77.16
2023-04-28T15:20:02.777Z,77.62
2023-04-28T15:22:37.633Z,77.62
2023-04-28T15:25:10.837Z,77.40
2023-04-28T15:27:43.577Z,77.80
2023-04-28T15:30:16.402Z,78.38
2023-04-28T15:32:49.851Z,78.57
2023-04-28T15:35:22.833Z,78.58
2023-04-28T15:37:57.565Z,78.97
2023-04-28T15:40:30.996Z,79.30
2023-04-28T15:43:03.721Z,78.80
2023-04-28T15:45:37.319Z,78.83
2023-04-28T15:48:12.273Z,78.99
2023-04-28T15:50:45.178Z,79.02
2023-04-28T15:53:19.465Z,78.84
2023-04-28T15:55:52.267Z,78.94
2023-04-28T15:58:25.385Z,79.28
2023-04-28T16:00:59.576Z,79.14
2023-04-28T16:03:32.838Z,78.61
2023-04-28T16:06:05.883Z,78.41
2023-04-28T16:08:40.436Z,78.72
2023-04-28T16:11:17.921Z,78.66
2023-04-28T16:13:50.696Z,78.41
2023-04-28T16:16:23.367Z,77.99
2023-04-28T16:18:56.387Z,77.94
2023-04-28T16:21:29.071Z,77.89
2023-04-28T16:24:04.573Z,77.83
2023-04-28T16:26:37.314Z,77.85
2023-04-28T16:29:11.199Z,77.79
2023-04-28T16:31:46.161Z,77.67
2023-04-28T16:34:19.562Z,77.64
2023-04-28T16:36:52.589Z,77.70
2023-04-28T16:39:27.010Z,77.51
2023-04-28T16:42:00.963Z,77.87
2023-04-28T16:44:33.782Z,77.97
2023-04-28T16:47:07.540Z,77.88
2023-04-28T16:49:40.183Z,77.78
2023-04-28T16:52:15.024Z,77.60
2023-04-28T16:54:49.217Z,77.56
2023-04-28T16:57:21.910Z,77.56
2023-04-28T16:59:54.838Z,78.36
2023-04-28T17:02:28.895Z,77.49
2023-04-28T17:05:02.081Z,77.46
2023-04-28T17:07:34.816Z,77.60
2023-04-28T17:10:09.708Z,78.15
2023-04-28T17:12:45.466Z,78.33
2023-04-28T17:15:18.629Z,78.71
2023-04-28T17:17:52.144Z,79.22
2023-04-28T17:20:25.147Z,79.32
2023-04-28T17:22:57.924Z,79.43
2023-04-28T17:25:32.164Z,79.49
2023-04-28T17:28:04.893Z,79.69
2023-04-28T17:30:38.564Z,79.76
2023-04-28T17:33:11.265Z,79.60
2023-04-28T17:35:44.240Z,79.81
2023-04-28T17:38:17.423Z,79.88
2023-04-28T17:40:51.811Z,80.00
2023-04-28T17:43:25.702Z,80.12
2023-04-28T17:45:58.665Z,80.39
2023-04-28T17:48:31.626Z,80.42
2023-04-28T17:51:04.457Z,80.51
2023-04-28T17:53:37.466Z,80.70
2023-04-28T17:56:11.841Z,80.67
2023-04-28T17:58:44.639Z,80.85
2023-04-28T18:01:18.214Z,80.76
2023-04-28T18:03:51.767Z,80.97
2023-04-28T18:06:25.097Z,80.79
2023-04-28T18:09:00.748Z,81.04
2023-04-28T18:11:35.926Z,81.17
2023-04-28T18:14:08.813Z,81.18
2023-04-28T18:16:41.859Z,81.19
2023-04-28T18:19:15.151Z,81.15
2023-04-28T18:21:47.900Z,81.20
2023-04-28T18:24:20.632Z,81.13
2023-04-28T18:26:54.805Z,81.17
2023-04-28T18:29:27.878Z,81.23
2023-04-28T18:32:01.162Z,81.27
2023-04-28T18:34:34.002Z,81.29
2023-04-28T18:37:07.358Z,81.32
2023-04-28T18:39:40.075Z,81.16
2023-04-28T18:42:14.324Z,81.11
2023-04-28T18:44:47.532Z,80.76
2023-04-28T18:47:20.303Z,80.65
2023-04-28T18:49:53.282Z,80.52
2023-04-28T18:52:26.068Z,80.55
2023-04-28T18:54:58.787Z,80.46
2023-04-28T18:57:33.106Z,80.45
2023-04-28T19:00:06.200Z,80.50
2023-04-28T19:02:39.412Z,80.77
2023-04-28T19:05:12.757Z,81.04
2023-04-28T19:07:45.798Z,80.81
2023-04-28T19:10:18.993Z,80.61
2023-04-28T19:12:53.195Z,80.59
2023-04-28T19:15:27.720Z,80.64
2023-04-28T19:18:00.661Z,80.60
2023-04-28T19:20:33.735Z,80.65
2023-04-28T19:23:06.584Z,80.78
2023-04-28T19:25:39.582Z,80.81
2023-04-28T19:28:13.926Z,80.88
2023-04-28T19:30:46.812Z,81.25
2023-04-28T19:33:19.968Z,81.40
2023-04-28T19:35:54.525Z,81.62
2023-04-28T19:38:27.647Z,81.84
2023-04-28T19:41:02.022Z,81.94
2023-04-28T19:43:36.774Z,82.02
2023-04-28T19:46:09.881Z,81.77
2023-04-28T19:48:42.687Z,81.67
2023-04-28T19:51:16.965Z,81.57
2023-04-28T19:53:51.415Z,81.51
2023-04-28T19:56:24.697Z,81.53
2023-04-28T19:58:59.276Z,81.30
2023-04-28T20:01:32.276Z,81.58
2023-04-28T20:04:05.252Z,80.99
2023-04-28T20:06:38.451Z,81.13
2023-04-28T20:09:11.213Z,81.04
2023-04-28T20:11:44.022Z,80.99
2023-04-28T20:14:18.596Z,81.20
2023-04-28T20:16:51.631Z,81.05
2023-04-28T20:19:24.688Z,81.15
2023-04-28T20:21:57.848Z,81.27
2023-04-28T20:24:30.545Z,81.18
2023-04-28T20:27:03.590Z,81.49
2023-04-28T20:29:38.194Z,81.50
2023-04-28T20:32:10.890Z,81.82
2023-04-28T20:34:44.444Z,81.68
2023-04-28T20:37:17.134Z,81.55
2023-04-28T20:39:50.979Z,81.58
2023-04-28T20:42:23.890Z,81.47
2023-04-28T20:44:58.794Z,81.63
2023-04-28T20:47:34.853Z,81.70
2023-04-28T20:50:10.916Z,81.60
2023-04-28T20:52:43.718Z,81.80
2023-04-28T20:55:16.793Z,81.78
2023-04-28T20:57:49.472Z,81.98
2023-04-28T21:00:23.740Z,81.86
2023-04-28T21:02:56.596Z,82.06
2023-04-28T21:05:29.881Z,81.96
2023-04-28T21:08:02.707Z,82.05
2023-04-28T21:10:36.188Z,82.05
2023-04-28T21:13:10.220Z,82.06
2023-04-28T21:15:44.313Z,82.26
2023-04-28T21:18:17.102Z,81.98
2023-04-28T21:20:51.113Z,82.20
2023-04-28T21:23:23.802Z,82.13
2023-04-28T21:25:56.525Z,82.24
2023-04-28T21:28:29.399Z,82.24
2023-04-28T21:31:04.896Z,82.55
2023-04-28T21:33:37.615Z,82.19
2023-04-28T21:36:10.288Z,82.35
2023-04-28T21:38:43.295Z,82.44
2023-04-28T21:41:16.226Z,82.59
2023-04-28T21:43:49.559Z,82.33
2023-04-28T21:46:23.736Z,82.00
2023-04-28T21:48:56.611Z,82.40
2023-04-28T21:51:29.497Z,82.27
2023-04-28T21:54:02.833Z,82.67
2023-04-28T21:56:35.521Z,82.49
2023-04-28T21:59:08.555Z,82.38
2023-04-28T22:01:42.906Z,82.29
2023-04-28T22:04:15.763Z,82.37
2023-04-28T22:06:49.090Z,82.30
2023-04-28T22:09:22.190Z,82.02
2023-04-28T22:11:55.022Z,82.14
2023-04-28T22:14:40.210Z,81.98
2023-04-28T22:17:16.352Z,81.98
2023-04-28T22:19:49.417Z,82.14
2023-04-28T22:22:22.511Z,81.91
2023-04-28T22:24:55.366Z,81.90
2023-04-28T22:27:28.085Z,82.07
2023-04-28T22:30:00.844Z,82.21
2023-04-28T22:32:35.197Z,81.79
2023-04-28T22:35:08.479Z,81.82
2023-04-28T22:37:41.502Z,81.58
2023-04-28T22:40:14.276Z,81.66
2023-04-28T22:42:47.162Z,81.69
2023-04-28T22:45:19.899Z,81.64
2023-04-28T22:47:54.013Z,81.85
2023-04-28T22:50:28.685Z,82.04
2023-04-28T22:53:01.413Z,82.16
2023-04-28T22:55:34.218Z,82.12
2023-04-28T22:58:07.154Z,82.72
2023-04-28T23:00:39.782Z,82.58
2023-04-28T23:03:14.073Z,82.67
2023-04-28T23:05:48.110Z,82.81
2023-04-28T23:08:21.000Z,82.93
2023-04-28T23:10:55.993Z,82.82
2023-04-28T23:13:28.785Z,82.69
2023-04-28T23:16:01.495Z,82.67
2023-04-28T23:18:36.160Z,82.46
2023-04-28T23:21:09.271Z,82.42
2023-04-28T23:23:42.468Z,82.36
2023-04-28T23:26:16.247Z,82.54
2023-04-28T23:28:49.290Z,82.48
2023-04-28T23:31:22.250Z,82.49
2023-04-28T23:33:56.504Z,82.58
2023-04-28T23:36:29.207Z,82.37
2023-04-28T23:39:02.521Z,82.47
2023-04-28T23:41:35.397Z,82.36
2023-04-28T23:44:08.164Z,82.56
2023-04-28T23:46:40.922Z,82.41
2023-04-28T23:49:16.473Z,82.52
2023-04-28T23:51:49.152Z,82.47
2023-04-28T23:54:21.929Z,82.47
2023-04-28T23:56:54.644Z,82.39
2023-04-28T23:59:27.568Z,82.16
